createdAt,value
2018-01-26T00:00:19.721Z,20.20
2018-01-26T00:02:46.675Z,22.47
2018-01-26T00:05:13.830Z,18.37
2018-01-26T00:07:41.510Z,20.67
2018-01-26T00:10:08.394Z,23.83
2018-01-26T00:12:35.482Z,20.33
2018-01-26T00:15:03.313Z,19.50
2018-01-26T00:17:30.149Z,16.30
2018-01-26T00:19:57.809Z,16.60
2018-01-26T00:22:25.125Z,18.57
2018-01-26T00:24:53.028Z,21.83
2018-01-26T00:27:24.096Z,17.27
2018-01-26T00:29:51.350Z,21.50
2018-01-26T00:32:23.915Z,21.53
2018-01-26T00:34:52.479Z,16.90
2018-01-26T00:37:19.786Z,18.70
2018-01-26T00:39:48.464Z,14.63
2018-01-26T00:42:16.265Z,13.10
2018-01-26T00:44:43.184Z,18.40
2018-01-26T00:47:10.270Z,13.63
2018-01-26T00:49:37.682Z,16.00
2018-01-26T00:52:05.175Z,15.10
2018-01-26T00:54:32.880Z,15.43
2018-01-26T00:57:05.336Z,17.87
2018-01-26T00:59:34.236Z,13.67
2018-01-26T01:02:01.211Z,14.67
2018-01-26T01:04:28.580Z,14.03
2018-01-26T01:06:55.376Z,18.60
2018-01-26T01:09:23.119Z,17.37
2018-01-26T01:11:55.144Z,17.97
2018-01-26T01:14:27.178Z,16.37
2018-01-26T01:16:54.066Z,18.63
2018-01-26T01:19:21.058Z,15.33
2018-01-26T01:21:48.992Z,17.27
2018-01-26T01:24:17.425Z,19.03
2018-01-26T01:26:44.402Z,19.07
2018-01-26T01:29:11.497Z,17.50
2018-01-26T01:31:38.308Z,18.17
2018-01-26T01:34:06.426Z,14.63
2018-01-26T01:36:34.088Z,19.07
2018-01-26T01:39:04.164Z,18.07
2018-01-26T01:41:36.985Z,20.20
2018-01-26T01:44:03.842Z,18.40
2018-01-26T01:46:31.160Z,21.00
2018-01-26T01:49:16.022Z,22.23
2018-01-26T01:51:43.276Z,16.43
2018-01-26T01:54:10.894Z,18.27
2018-01-26T01:56:37.794Z,16.63
2018-01-26T01:59:04.776Z,16.40
2018-01-26T02:01:32.464Z,20.93
2018-01-26T02:04:00.081Z,19.50
2018-01-26T02:06:27.245Z,21.20
2018-01-26T02:08:55.288Z,25.33
2018-01-26T02:11:22.231Z,16.00
2018-01-26T02:13:49.169Z,14.43
2018-01-26T02:16:21.422Z,19.47
2018-01-26T02:18:49.194Z,16.77
2018-01-26T02:21:16.892Z,20.27
2018-01-26T02:23:44.925Z,22.73
2018-01-26T02:26:11.922Z,20.33
2018-01-26T02:28:40.217Z,24.77
2018-01-26T02:31:07.141Z,22.77
2018-01-26T02:33:35.130Z,22.50
2018-01-26T02:36:02.046Z,29.30
2018-01-26T02:38:29.932Z,29.30
2018-01-26T02:41:02.905Z,22.87
2018-01-26T02:43:30.536Z,23.90
2018-01-26T02:45:57.465Z,24.60
2018-01-26T02:48:25.025Z,22.90
2018-01-26T02:50:52.003Z,29.00
2018-01-26T02:53:24.069Z,24.33
2018-01-26T02:55:52.060Z,24.42
2018-01-26T02:58:18.933Z,31.48
2018-01-26T03:00:51.129Z,23.38
2018-01-26T03:03:21.540Z,28.17
2018-01-26T03:05:48.700Z,19.00
2018-01-26T03:08:15.693Z,24.60
2018-01-26T03:10:44.439Z,24.73
2018-01-26T03:13:11.428Z,21.63
2018-01-26T03:15:38.239Z,21.47
2018-01-26T03:18:05.237Z,21.90
2018-01-26T03:20:32.137Z,24.90
2018-01-26T03:23:00.457Z,23.45
2018-01-26T03:25:27.629Z,23.60
2018-01-26T03:27:54.890Z,29.83
2018-01-26T03:33:15.783Z,26.03
2018-01-26T03:35:43.067Z,30.23
2018-01-26T03:38:10.100Z,28.38
2018-01-26T03:40:37.267Z,25.03
2018-01-26T03:43:04.890Z,28.87
2018-01-26T03:45:31.749Z,31.73
2018-01-26T03:47:58.755Z,24.83
2018-01-26T03:50:25.828Z,20.10
2018-01-26T03:52:52.804Z,27.97
2018-01-26T03:55:20.531Z,24.63
2018-01-26T03:57:47.915Z,22.45
2018-01-26T04:00:15.596Z,29.77
2018-01-26T04:02:43.985Z,31.08
2018-01-26T04:05:11.321Z,34.80
2018-01-26T04:07:39.249Z,31.45
2018-01-26T04:10:06.131Z,25.20
2018-01-26T04:12:33.119Z,31.08
2018-01-26T04:15:00.052Z,35.13
2018-01-26T04:17:27.097Z,30.60
2018-01-26T04:19:54.190Z,23.50
2018-01-26T04:22:21.168Z,27.13
2018-01-26T04:24:49.017Z,29.77
2018-01-26T04:27:16.249Z,34.38
2018-01-26T04:29:54.593Z,38.60
2018-01-26T04:32:21.881Z,40.33
2018-01-26T04:34:49.592Z,34.40
2018-01-26T04:37:16.533Z,43.55
2018-01-26T04:39:44.226Z,30.62
2018-01-26T04:42:12.709Z,37.30
2018-01-26T04:44:39.695Z,40.15
2018-01-26T04:47:14.692Z,33.30
2018-01-26T04:49:47.476Z,34.40
2018-01-26T04:52:15.698Z,26.48
2018-01-26T04:54:43.802Z,36.05
2018-01-26T04:57:16.692Z,33.38
2018-01-26T04:59:43.930Z,34.13
2018-01-26T05:02:11.164Z,29.58
2018-01-26T05:04:38.126Z,31.40
2018-01-26T05:07:05.548Z,30.08
2018-01-26T05:09:32.402Z,34.53
2018-01-26T05:11:59.365Z,29.73
2018-01-26T05:14:26.259Z,43.03
2018-01-26T05:16:53.924Z,38.78
2018-01-26T05:19:20.998Z,35.80
2018-01-26T05:21:47.972Z,35.78
2018-01-26T05:24:15.740Z,40.75
2018-01-26T05:26:48.056Z,35.42
2018-01-26T05:29:16.823Z,37.33
2018-01-26T05:31:46.526Z,36.05
2018-01-26T05:34:21.059Z,39.03
2018-01-26T05:36:48.220Z,45.08
2018-01-26T05:39:15.530Z,38.93
2018-01-26T05:41:43.057Z,38.40
2018-01-26T05:44:10.702Z,36.72
2018-01-26T05:46:37.542Z,33.80
2018-01-26T05:49:04.655Z,36.47
2018-01-26T05:51:31.688Z,37.33
2018-01-26T05:53:58.677Z,54.15
2018-01-26T05:56:26.497Z,42.65
2018-01-26T05:58:53.648Z,41.10
2018-01-26T06:01:20.752Z,48.13
2018-01-26T06:03:53.489Z,47.42
2018-01-26T06:06:21.295Z,41.22
2018-01-26T06:08:48.651Z,43.15
2018-01-26T06:11:21.835Z,41.37
2018-01-26T06:13:48.641Z,50.25
2018-01-26T06:16:15.695Z,35.45
2018-01-26T06:18:43.208Z,42.17
2018-01-26T06:21:10.048Z,41.92
2018-01-26T06:23:39.001Z,41.50
2018-01-26T06:26:06.007Z,40.60
2018-01-26T06:28:33.689Z,39.47
2018-01-26T06:31:01.853Z,37.00
2018-01-26T06:33:29.513Z,39.15
2018-01-26T06:35:56.813Z,36.00
2018-01-26T06:38:24.290Z,47.33
2018-01-26T06:40:51.967Z,48.42
2018-01-26T06:43:19.758Z,40.75
2018-01-26T06:45:46.678Z,49.03
2018-01-26T06:48:13.838Z,38.47
2018-01-26T06:50:40.843Z,36.93
2018-01-26T06:53:13.020Z,42.65
2018-01-26T06:55:39.953Z,37.97
2018-01-26T06:58:07.027Z,37.35
2018-01-26T07:00:34.240Z,38.20
2018-01-26T07:03:06.550Z,47.57
2018-01-26T07:05:40.959Z,38.87
2018-01-26T07:08:10.165Z,41.78
2018-01-26T07:10:39.419Z,41.42
2018-01-26T07:41:11.801Z,36.00
2018-01-26T07:58:46.094Z,46.93
2018-01-26T08:01:13.770Z,44.17
2018-01-26T08:03:42.271Z,45.92
2018-01-26T08:06:09.786Z,39.87
2018-01-26T08:26:39.442Z,37.55
2018-01-26T08:58:59.957Z,39.75
2018-01-26T09:40:36.176Z,38.63
2018-01-26T09:43:04.209Z,39.83
2018-01-26T09:45:31.362Z,30.10
2018-01-26T09:48:00.189Z,38.63
2018-01-26T09:50:27.311Z,27.77
2018-01-26T09:52:54.342Z,37.43
2018-01-26T09:55:21.608Z,43.97
2018-01-26T09:57:48.777Z,31.43
2018-01-26T10:00:15.985Z,32.70
2018-01-26T10:02:43.107Z,29.40
2018-01-26T10:05:10.256Z,38.40
2018-01-26T10:07:37.774Z,33.33
2018-01-26T10:10:04.888Z,30.67
2018-01-26T10:12:42.487Z,42.33
2018-01-26T10:15:16.912Z,33.30
2018-01-26T10:17:44.150Z,34.37
2018-01-26T10:20:11.193Z,29.03
2018-01-26T10:22:46.164Z,37.00
2018-01-26T10:25:13.294Z,31.67
2018-01-26T10:27:41.317Z,39.33
2018-01-26T10:30:10.326Z,33.03
2018-01-26T10:32:37.408Z,32.00
2018-01-26T10:35:04.487Z,32.20
2018-01-26T10:37:31.634Z,25.13
2018-01-26T10:39:58.691Z,28.77
2018-01-26T10:42:29.884Z,26.40
2018-01-26T10:44:57.019Z,33.47
2018-01-26T10:47:24.080Z,33.23
2018-01-26T10:49:52.152Z,34.03
2018-01-26T10:52:20.858Z,27.00
2018-01-26T10:54:47.868Z,31.13
2018-01-26T10:57:18.811Z,24.33
2018-01-26T10:59:47.092Z,26.23
2018-01-26T11:02:14.060Z,29.83
2018-01-26T11:04:41.951Z,25.90
2018-01-26T11:07:08.979Z,25.33
2018-01-26T11:09:41.227Z,23.53
2018-01-26T11:12:08.261Z,20.80
2018-01-26T11:14:35.301Z,26.50
2018-01-26T11:17:02.333Z,23.13
2018-01-26T11:19:30.218Z,25.23
2018-01-26T11:22:00.749Z,24.07
2018-01-26T11:24:29.326Z,22.27
2018-01-26T11:26:56.401Z,34.20
2018-01-26T11:29:23.293Z,24.20
2018-01-26T11:31:50.159Z,16.90
2018-01-26T11:34:17.811Z,16.43
2018-01-26T11:36:44.822Z,31.40
2018-01-26T11:39:11.813Z,23.53
2018-01-26T11:41:40.078Z,16.40
2018-01-26T11:44:07.159Z,26.47
2018-01-26T11:46:34.154Z,22.50
2018-01-26T11:49:01.142Z,20.13
2018-01-26T12:12:27.103Z,23.37
2018-01-26T12:14:53.977Z,20.43
2018-01-26T12:17:20.865Z,16.27
2018-01-26T12:19:48.517Z,15.27
2018-01-26T12:22:15.509Z,15.27
2018-01-26T12:24:42.440Z,16.73
2018-01-26T12:27:09.360Z,18.80
2018-01-26T12:29:37.184Z,24.90
2018-01-26T12:32:05.065Z,16.53
2018-01-26T12:34:32.012Z,16.80
2018-01-26T12:36:59.992Z,14.30
2018-01-26T12:39:26.894Z,20.17
2018-01-26T12:41:53.863Z,15.00
2018-01-26T12:44:20.824Z,17.77
2018-01-26T12:46:47.670Z,18.33
2018-01-26T12:49:14.626Z,20.03
2018-01-26T12:51:41.867Z,16.60
2018-01-26T12:54:08.757Z,21.93
2018-01-26T12:56:35.758Z,16.00
2018-01-26T12:59:03.417Z,19.30
2018-01-26T13:01:30.337Z,19.57
2018-01-26T13:03:57.273Z,19.30
2018-01-26T13:06:24.209Z,14.83
2018-01-26T13:08:51.273Z,22.53
2018-01-26T13:11:18.241Z,17.03
2018-01-26T13:13:45.169Z,15.87
2018-01-26T13:16:13.578Z,19.40
2018-01-26T13:39:24.054Z,17.50
2018-01-26T13:41:51.174Z,18.33
2018-01-26T13:44:18.242Z,19.20
2018-01-26T13:46:45.373Z,22.37
2018-01-26T13:49:12.359Z,23.80
2018-01-26T13:51:40.126Z,15.20
2018-01-26T13:54:07.152Z,16.10
2018-01-26T13:56:34.321Z,13.17
2018-01-26T13:59:01.963Z,17.87
2018-01-26T14:01:29.892Z,22.23
2018-01-26T14:03:56.879Z,14.40
2018-01-26T14:06:23.872Z,22.33
2018-01-26T14:08:50.932Z,20.13
2018-01-26T14:11:17.938Z,12.83
2018-01-26T14:13:45.091Z,18.10
2018-01-26T14:16:17.134Z,14.87
2018-01-26T14:18:44.100Z,18.40
2018-01-26T14:21:14.501Z,12.50
2018-01-26T14:23:42.699Z,18.27
2018-01-26T14:26:09.634Z,19.27
2018-01-26T14:28:42.158Z,13.63
2018-01-26T14:31:16.802Z,16.67
2018-01-26T14:33:44.652Z,20.73
2018-01-26T14:36:11.711Z,14.70
2018-01-26T14:38:38.779Z,16.50
2018-01-26T14:41:07.510Z,15.17
2018-01-26T14:43:39.218Z,20.27
2018-01-26T14:46:07.323Z,19.47
2018-01-26T14:48:35.895Z,20.07
2018-01-26T14:51:03.619Z,18.17
2018-01-26T14:53:30.662Z,18.27
2018-01-26T14:56:03.555Z,13.57
2018-01-26T14:58:30.488Z,15.37
2018-01-26T15:00:58.204Z,15.10
2018-01-26T15:03:25.279Z,17.57
2018-01-26T15:05:52.305Z,20.50
2018-01-26T15:08:20.045Z,16.03
2018-01-26T15:10:48.624Z,17.90
2018-01-26T15:13:15.898Z,16.07
2018-01-26T15:15:43.281Z,18.70
2018-01-26T15:18:10.471Z,16.90
2018-01-26T15:20:37.542Z,16.10
2018-01-26T15:23:08.335Z,20.40
2018-01-26T15:25:37.518Z,15.03
2018-01-26T15:28:05.201Z,16.43
2018-01-26T15:30:33.061Z,14.87
2018-01-26T15:33:00.954Z,20.43
2018-01-26T15:35:27.981Z,18.60
2018-01-26T15:37:57.280Z,19.73
2018-01-26T15:40:24.261Z,20.37
2018-01-26T15:42:51.382Z,14.47
2018-01-26T15:45:19.084Z,18.13
2018-01-26T15:47:46.288Z,20.67
2018-01-26T15:50:13.342Z,14.50
2018-01-26T15:52:40.795Z,19.07
2018-01-26T15:55:07.829Z,21.67
2018-01-26T15:57:34.894Z,14.23
2018-01-26T16:00:01.963Z,16.23
2018-01-26T16:02:29.172Z,17.37
2018-01-26T16:04:56.170Z,14.60
2018-01-26T16:07:23.394Z,16.77
2018-01-26T16:09:50.831Z,17.43
2018-01-26T16:12:18.569Z,18.13
2018-01-26T16:14:45.483Z,17.10
2018-01-26T16:17:13.335Z,20.53
2018-01-26T16:19:41.490Z,18.93
2018-01-26T16:22:08.403Z,18.47
2018-01-26T16:24:35.244Z,15.57
2018-01-26T16:27:03.096Z,15.67
2018-01-26T16:29:30.667Z,20.30
2018-01-26T16:31:57.675Z,12.97
2018-01-26T16:34:24.574Z,21.93
2018-01-26T16:36:51.455Z,17.60
2018-01-26T16:39:19.572Z,19.90
2018-01-26T16:41:47.404Z,15.60
2018-01-26T16:44:14.483Z,13.50
2018-01-26T16:46:42.951Z,15.63
2018-01-26T16:49:09.801Z,17.90
2018-01-26T16:51:36.726Z,20.50
2018-01-26T16:54:03.695Z,17.30
2018-01-26T16:56:33.425Z,18.23
2018-01-26T16:59:00.352Z,19.27
2018-01-26T17:01:27.244Z,18.98
2018-01-26T17:03:54.165Z,17.60
2018-01-26T17:06:21.256Z,20.42
2018-01-26T17:08:48.929Z,17.90
2018-01-26T17:11:15.854Z,15.43
2018-01-26T17:13:43.461Z,21.42
2018-01-26T17:16:11.949Z,13.68
2018-01-26T17:18:38.945Z,15.35
2018-01-26T17:21:06.575Z,17.08
2018-01-26T17:23:33.426Z,21.58
2018-01-26T17:26:00.298Z,19.10
2018-01-26T17:28:27.170Z,20.58
2018-01-26T17:30:54.221Z,18.35
2018-01-26T17:33:21.086Z,14.82
2018-01-26T17:35:48.102Z,20.98
2018-01-26T17:38:15.018Z,20.08
2018-01-26T17:40:41.961Z,16.20
2018-01-26T17:43:10.595Z,28.02
2018-01-26T17:45:37.572Z,25.30
2018-01-26T17:48:04.496Z,18.35
2018-01-26T17:50:31.358Z,21.95
2018-01-26T17:52:59.009Z,20.75
2018-01-26T17:55:27.245Z,23.42
2018-01-26T17:57:54.614Z,18.48
2018-01-26T18:00:21.672Z,21.23
2018-01-26T18:02:49.950Z,28.35
2018-01-26T18:05:17.546Z,27.05
2018-01-26T18:07:44.556Z,19.50
2018-01-26T18:10:11.876Z,21.20
2018-01-26T18:12:41.023Z,20.33
2018-01-26T18:15:10.584Z,20.27
2018-01-26T18:17:39.286Z,16.73
2018-01-26T18:20:07.449Z,16.15
2018-01-26T18:22:35.009Z,15.57
2018-01-26T18:25:01.903Z,18.40
2018-01-26T18:27:29.379Z,22.13
2018-01-26T18:29:58.261Z,18.67
2018-01-26T18:41:34.346Z,16.08
2018-01-26T18:44:03.396Z,15.80
2018-01-26T18:46:32.038Z,27.02
2018-01-26T18:49:00.366Z,20.42
2018-01-26T18:51:28.079Z,26.00
2018-01-26T18:53:55.003Z,23.00
2018-01-26T18:56:21.945Z,25.60
2018-01-26T18:58:49.675Z,22.35
2018-01-26T19:01:17.579Z,25.90
2018-01-26T19:03:45.340Z,21.05
2018-01-26T19:06:12.469Z,22.62
2018-01-26T19:08:40.787Z,28.02
2018-01-26T19:11:09.526Z,26.98
2018-01-26T19:13:38.136Z,28.10
2018-01-26T19:16:06.405Z,33.92
2018-01-26T19:18:35.143Z,27.20
2018-01-26T19:21:03.891Z,24.98
2018-01-26T19:23:33.536Z,22.00
2018-01-26T19:26:02.538Z,28.62
2018-01-26T19:28:31.500Z,18.40
2018-01-26T19:31:00.194Z,21.58
2018-01-26T19:33:29.048Z,19.15
2018-01-26T19:35:58.723Z,23.60
2018-01-26T19:38:32.885Z,19.95
2018-01-26T19:41:02.486Z,17.62
2018-01-26T19:43:31.383Z,22.05
2018-01-26T19:46:00.144Z,20.67
2018-01-26T19:48:28.863Z,23.05
2018-01-26T19:50:57.781Z,23.87
2018-01-26T19:53:26.751Z,20.33
2018-01-26T19:55:56.284Z,21.62
2018-01-26T19:58:25.271Z,26.58
2018-01-26T20:00:54.188Z,19.15
2018-01-26T20:03:32.973Z,23.87
2018-01-26T20:34:54.730Z,19.92
2018-01-26T20:37:24.338Z,24.83
2018-01-26T20:39:51.933Z,25.62
2018-01-26T20:42:20.670Z,24.67
2018-01-26T20:44:49.594Z,22.05
2018-01-26T20:47:18.422Z,23.08
2018-01-26T20:49:47.351Z,25.15
2018-01-26T20:52:16.932Z,21.87
2018-01-26T20:54:45.879Z,23.05
2018-01-26T20:57:15.618Z,20.90
2018-01-26T20:59:44.672Z,21.67
2018-01-26T21:02:13.539Z,24.58
2018-01-26T21:04:42.417Z,21.40
2018-01-26T21:07:11.413Z,23.45
2018-01-26T21:09:40.373Z,19.73
2018-01-26T21:12:09.467Z,25.23
2018-01-26T21:14:38.549Z,26.85
2018-01-26T21:17:07.380Z,20.92
2018-01-26T21:19:37.177Z,26.33
2018-01-26T21:22:06.624Z,25.10
2018-01-26T21:24:36.277Z,23.25
2018-01-26T21:27:04.885Z,37.10
2018-01-26T21:29:34.007Z,26.98
2018-01-26T21:32:01.489Z,26.00
2018-01-26T21:34:29.675Z,30.17
2018-01-26T21:36:58.546Z,35.92
2018-01-26T21:39:26.427Z,42.08
2018-01-26T21:41:55.033Z,31.42
2018-01-26T21:44:21.958Z,30.08
2018-01-26T21:46:50.045Z,30.10
2018-01-26T21:49:22.019Z,28.25
2018-01-26T21:51:50.409Z,28.40
2018-01-26T21:54:19.586Z,30.62
2018-01-26T21:56:48.036Z,29.15
2018-01-26T21:59:16.518Z,28.38
2018-01-26T22:01:44.306Z,30.92
2018-01-26T22:04:12.160Z,29.40
2018-01-26T22:06:46.195Z,37.53
2018-01-26T22:09:13.059Z,34.63
2018-01-26T22:11:40.180Z,37.65
2018-01-26T22:14:07.158Z,36.75
2018-01-26T22:16:35.402Z,46.22
2018-01-26T22:19:03.373Z,39.92
2018-01-26T22:21:33.967Z,43.78
2018-01-26T22:24:01.064Z,46.20
2018-01-26T22:26:27.925Z,43.10
2018-01-26T22:28:54.756Z,45.38
2018-01-26T22:31:22.507Z,35.75
2018-01-26T22:33:50.127Z,42.20
2018-01-26T22:36:18.152Z,37.38
2018-01-26T22:38:45.200Z,40.80
2018-01-26T22:41:12.331Z,34.95
2018-01-26T22:43:39.904Z,44.45
2018-01-26T22:46:06.745Z,36.90
2018-01-26T22:48:33.538Z,38.22
2018-01-26T22:51:01.113Z,41.17
2018-01-26T22:53:30.475Z,40.40
2018-01-26T22:55:57.314Z,32.28
2018-01-26T22:58:24.179Z,43.30
2018-01-26T23:00:51.798Z,38.67
2018-01-26T23:03:18.641Z,37.38
2018-01-26T23:05:45.504Z,38.80
2018-01-26T23:08:12.349Z,36.95
2018-01-26T23:10:40.138Z,41.10
2018-01-26T23:13:07.005Z,43.42
2018-01-26T23:15:33.838Z,38.53
2018-01-26T23:18:00.640Z,42.40
2018-01-26T23:20:27.464Z,38.05
2018-01-26T23:22:54.409Z,35.17
2018-01-26T23:25:21.303Z,39.47
2018-01-26T23:27:48.912Z,35.40
2018-01-26T23:30:15.860Z,37.10
2018-01-26T23:32:42.789Z,41.53
2018-01-26T23:35:09.579Z,34.83
2018-01-26T23:37:36.435Z,35.05
2018-01-26T23:42:46.307Z,38.42
2018-01-26T23:45:13.169Z,34.20
2018-01-26T23:47:40.018Z,43.33
2018-01-26T23:50:07.643Z,40.40
2018-01-26T23:52:34.479Z,39.20
2018-01-26T23:55:01.294Z,38.88
2018-01-26T23:57:28.095Z,38.33
2018-01-26T23:59:54.933Z,38.22
